createdAt,value
2016-05-15T00:00:57.671Z,0
2016-05-15T00:01:57.674Z,0
2016-05-15T00:02:57.676Z,0
2016-05-15T00:03:57.367Z,0
2016-05-15T00:04:57.683Z,0
2016-05-15T00:05:57.685Z,0
2016-05-15T00:06:57.688Z,0
2016-05-15T00:07:57.674Z,0
2016-05-15T00:08:57.770Z,0
2016-05-15T00:09:57.679Z,0
2016-05-15T00:10:57.668Z,0
2016-05-15T00:11:57.670Z,0
2016-05-15T00:12:57.673Z,0
2016-05-15T00:13:57.659Z,0
2016-05-15T00:14:57.662Z,0
2016-05-15T00:15:57.524Z,0
2016-05-15T00:16:57.667Z,0
2016-05-15T00:17:57.670Z,0
2016-05-15T00:18:58.642Z,0
2016-05-15T00:19:57.675Z,0
2016-05-15T00:20:57.522Z,0
2016-05-15T00:21:57.665Z,0
2016-05-15T00:22:57.511Z,0
2016-05-15T00:23:57.671Z,0
2016-05-15T00:24:57.517Z,0
2016-05-15T00:25:57.520Z,0
2016-05-15T00:26:57.507Z,0
2016-05-15T00:27:57.510Z,0
2016-05-15T00:28:57.652Z,0
2016-05-15T00:29:57.671Z,0
2016-05-15T00:30:57.658Z,0
2016-05-15T00:31:57.677Z,0
2016-05-15T00:32:57.680Z,0
2016-05-15T00:33:57.526Z,0
2016-05-15T00:34:57.513Z,0
2016-05-15T00:35:57.515Z,0
2016-05-15T00:36:57.690Z,0
2016-05-15T00:37:57.677Z,0
2016-05-15T00:38:57.523Z,0
2016-05-15T00:39:57.682Z,0
2016-05-15T00:40:57.670Z,0
2016-05-15T00:41:57.500Z,0
2016-05-15T00:42:57.503Z,0
2016-05-15T00:43:57.662Z,0
2016-05-15T00:44:57.649Z,0
2016-05-15T00:45:57.651Z,0
2016-05-15T00:46:57.670Z,0
2016-05-15T00:47:57.657Z,0
2016-05-15T00:48:57.206Z,0
2016-05-15T00:49:57.663Z,0
2016-05-15T00:50:57.353Z,0
2016-05-15T00:51:57.512Z,0
2016-05-15T00:52:57.670Z,0
2016-05-15T00:53:57.501Z,0
2016-05-15T00:54:57.644Z,0
2016-05-15T00:55:57.663Z,0
2016-05-15T00:56:57.650Z,0
2016-05-15T00:57:57.669Z,0
2016-05-15T00:58:57.530Z,0
2016-05-15T00:59:57.674Z,0
2016-05-15T01:00:57.864Z,0
2016-05-15T01:01:57.663Z,0
2016-05-15T01:02:57.650Z,0
2016-05-15T01:03:57.669Z,0
2016-05-15T01:04:57.500Z,0
2016-05-15T01:05:57.674Z,0
2016-05-15T01:06:57.646Z,0
2016-05-15T01:07:57.649Z,0
2016-05-15T01:08:57.495Z,0
2016-05-15T01:09:57.669Z,0
2016-05-15T01:10:57.516Z,0
2016-05-15T01:11:57.660Z,0
2016-05-15T01:12:57.646Z,0
2016-05-15T01:13:57.665Z,0
2016-05-15T01:14:57.682Z,0
2016-05-15T01:15:57.514Z,0
2016-05-15T01:16:57.673Z,0
2016-05-15T01:17:57.659Z,0
2016-05-15T01:18:57.662Z,0
2016-05-15T01:19:57.509Z,0
2016-05-15T01:20:57.652Z,0
2016-05-15T01:21:57.499Z,0
2016-05-15T01:22:57.658Z,0
2016-05-15T01:23:57.676Z,0
2016-05-15T01:24:57.647Z,0
2016-05-15T01:25:57.666Z,0
2016-05-15T01:26:57.512Z,0
2016-05-15T01:27:57.655Z,0
2016-05-15T01:28:57.658Z,0
2016-05-15T01:29:57.505Z,0
2016-05-15T01:30:57.491Z,0
2016-05-15T01:31:57.494Z,0
2016-05-15T01:32:57.497Z,0
2016-05-15T01:33:57.484Z,0
2016-05-15T01:34:57.643Z,0
2016-05-15T01:35:57.646Z,0
2016-05-15T01:36:57.633Z,0
2016-05-15T01:37:57.494Z,0
2016-05-15T01:38:57.357Z,0
2016-05-15T01:39:57.641Z,0
2016-05-15T01:40:57.643Z,0
2016-05-15T01:41:57.646Z,0
2016-05-15T01:42:57.648Z,0
2016-05-15T01:43:57.479Z,0
2016-05-15T01:44:57.638Z,0
2016-05-15T01:45:57.656Z,0
2016-05-15T01:46:57.487Z,0
2016-05-15T01:47:57.646Z,0
2016-05-15T01:48:57.884Z,0
2016-05-15T01:49:57.496Z,0
2016-05-15T01:50:57.654Z,0
2016-05-15T01:51:57.657Z,0
2016-05-15T01:52:57.644Z,0
2016-05-15T01:53:57.492Z,0
2016-05-15T01:54:57.634Z,0
2016-05-15T01:55:57.653Z,0
2016-05-15T01:56:57.624Z,0
2016-05-15T01:57:57.627Z,0
2016-05-15T01:58:57.489Z,0
2016-05-15T01:59:57.647Z,0
2016-05-15T02:00:57.478Z,0
2016-05-15T02:01:57.638Z,0
2016-05-15T02:02:57.641Z,0
2016-05-15T02:03:58.143Z,0
2016-05-15T02:04:57.630Z,0
2016-05-15T02:05:57.632Z,0
2016-05-15T02:06:57.463Z,0
2016-05-15T02:07:57.622Z,0
2016-05-15T02:08:57.624Z,0
2016-05-15T02:09:57.628Z,0
2016-05-15T02:10:57.646Z,0
2016-05-15T02:11:57.633Z,0
2016-05-15T02:12:57.479Z,0
2016-05-15T02:13:57.639Z,0
2016-05-15T02:14:57.641Z,0
2016-05-15T02:15:57.628Z,0
2016-05-15T02:16:57.632Z,0
2016-05-15T02:17:57.462Z,0
2016-05-15T02:18:58.167Z,0
2016-05-15T02:19:57.624Z,0
2016-05-15T02:20:57.610Z,0
2016-05-15T02:21:57.629Z,0
2016-05-15T02:22:57.615Z,0
2016-05-15T02:23:57.634Z,0
2016-05-15T02:24:57.621Z,0
2016-05-15T02:25:57.623Z,0
2016-05-15T02:26:57.626Z,0
2016-05-15T02:27:57.629Z,0
2016-05-15T02:28:57.617Z,0
2016-05-15T02:29:57.494Z,0
2016-05-15T02:30:57.466Z,0
2016-05-15T02:31:57.624Z,0
2016-05-15T02:32:57.456Z,0
2016-05-15T02:33:57.474Z,0
2016-05-15T02:34:57.601Z,0
2016-05-15T02:35:57.635Z,0
2016-05-15T02:36:57.622Z,0
2016-05-15T02:37:57.641Z,0
2016-05-15T02:38:57.330Z,0
2016-05-15T02:39:57.615Z,0
2016-05-15T02:40:57.461Z,0
2016-05-15T02:41:57.463Z,0
2016-05-15T02:42:57.607Z,0
2016-05-15T02:43:57.469Z,0
2016-05-15T02:44:57.613Z,0
2016-05-15T02:45:57.490Z,0
2016-05-15T02:46:57.602Z,0
2016-05-15T02:47:57.620Z,0
2016-05-15T02:48:58.310Z,0
2016-05-15T02:49:57.454Z,0
2016-05-15T02:50:57.472Z,0
2016-05-15T02:51:57.601Z,0
2016-05-15T02:52:57.462Z,0
2016-05-15T02:53:57.620Z,0
2016-05-15T02:54:57.608Z,0
2016-05-15T02:55:57.595Z,0
2016-05-15T02:56:57.598Z,0
2016-05-15T02:57:57.600Z,0
2016-05-15T02:58:57.448Z,0
2016-05-15T02:59:57.606Z,0
2016-05-15T03:00:57.608Z,0
2016-05-15T03:01:57.299Z,0
2016-05-15T03:02:57.598Z,0
2016-05-15T03:03:58.007Z,0
2016-05-15T03:04:57.603Z,0
2016-05-15T03:05:57.435Z,0
2016-05-15T03:06:57.438Z,0
2016-05-15T03:07:57.596Z,0
2016-05-15T03:08:57.443Z,0
2016-05-15T03:09:57.446Z,0
2016-05-15T03:10:57.588Z,0
2016-05-15T03:11:57.591Z,0
2016-05-15T03:12:57.454Z,0
2016-05-15T03:13:57.597Z,0
2016-05-15T03:14:57.459Z,0
2016-05-15T03:15:57.290Z,0
2016-05-15T03:16:57.605Z,0
2016-05-15T03:17:57.607Z,0
2016-05-15T03:18:57.485Z,0
2016-05-15T03:19:57.581Z,0
2016-05-15T03:20:57.616Z,0
2016-05-15T03:21:57.431Z,4
2016-05-15T03:22:57.276Z,4
2016-05-15T03:23:58.015Z,0
2016-05-15T03:24:57.595Z,4
2016-05-15T03:25:57.581Z,4
2016-05-15T03:26:57.601Z,4
2016-05-15T03:27:57.603Z,4
2016-05-15T03:28:57.434Z,8
2016-05-15T03:29:57.452Z,8
2016-05-15T03:30:57.423Z,4
2016-05-15T03:31:57.583Z,8
2016-05-15T03:32:57.428Z,8
2016-05-15T03:33:57.291Z,8
2016-05-15T03:34:57.591Z,8
2016-05-15T03:35:57.594Z,12
2016-05-15T03:36:57.424Z,12
2016-05-15T03:37:57.442Z,12
2016-05-15T03:38:57.586Z,16
2016-05-15T03:39:57.432Z,20
2016-05-15T03:40:57.450Z,20
2016-05-15T03:41:57.578Z,24
2016-05-15T03:42:57.581Z,28
2016-05-15T03:43:57.568Z,32
2016-05-15T03:44:57.429Z,36
2016-05-15T03:45:57.589Z,36
2016-05-15T03:46:57.576Z,36
2016-05-15T03:47:57.593Z,32
2016-05-15T03:48:57.722Z,32
2016-05-15T03:49:57.429Z,28
2016-05-15T03:50:57.259Z,32
2016-05-15T03:51:57.417Z,36
2016-05-15T03:52:57.577Z,44
2016-05-15T03:53:57.579Z,44
2016-05-15T03:54:57.425Z,48
2016-05-15T03:55:57.570Z,44
2016-05-15T03:56:57.587Z,48
2016-05-15T03:57:57.575Z,48
2016-05-15T03:58:57.577Z,48
2016-05-15T03:59:57.564Z,52
2016-05-15T04:00:57.567Z,60
2016-05-15T04:01:57.585Z,68
2016-05-15T04:02:57.244Z,68
2016-05-15T04:03:57.575Z,72
2016-05-15T04:04:57.406Z,80
2016-05-15T04:05:57.408Z,92
2016-05-15T04:06:57.567Z,100
2016-05-15T04:07:57.570Z,104
2016-05-15T04:08:57.275Z,120
2016-05-15T04:09:57.560Z,132
2016-05-15T04:10:57.578Z,144
2016-05-15T04:11:57.566Z,140
2016-05-15T04:12:57.396Z,128
2016-05-15T04:13:57.570Z,124
2016-05-15T04:14:57.558Z,120
2016-05-15T04:15:57.544Z,112
2016-05-15T04:16:57.406Z,104
2016-05-15T04:17:57.550Z,96
2016-05-15T04:18:57.662Z,96
2016-05-15T04:19:57.399Z,104
2016-05-15T04:20:57.590Z,120
2016-05-15T04:21:57.561Z,136
2016-05-15T04:22:57.392Z,144
2016-05-15T04:23:57.394Z,148
2016-05-15T04:24:57.569Z,148
2016-05-15T04:25:57.556Z,144
2016-05-15T04:26:57.543Z,136
2016-05-15T04:27:57.389Z,144
2016-05-15T04:28:57.548Z,160
2016-05-15T04:29:57.551Z,176
2016-05-15T04:30:57.397Z,200
2016-05-15T04:31:57.572Z,220
2016-05-15T04:32:57.544Z,240
2016-05-15T04:33:57.812Z,260
2016-05-15T04:34:57.564Z,276
2016-05-15T04:35:57.552Z,296
2016-05-15T04:36:57.555Z,320
2016-05-15T04:37:57.557Z,376
2016-05-15T04:38:57.560Z,416
2016-05-15T04:39:57.547Z,432
2016-05-15T04:40:57.549Z,424
2016-05-15T04:41:57.552Z,432
2016-05-15T04:42:57.539Z,480
2016-05-15T04:43:57.557Z,524
2016-05-15T04:44:57.560Z,588
2016-05-15T04:45:57.546Z,688
2016-05-15T04:46:57.394Z,804
2016-05-15T04:47:57.537Z,1008
2016-05-15T04:48:57.665Z,1268
2016-05-15T04:49:57.402Z,1412
2016-05-15T04:50:57.529Z,1440
2016-05-15T04:51:57.532Z,1460
2016-05-15T04:52:57.223Z,1468
2016-05-15T04:53:57.537Z,1420
2016-05-15T04:54:57.540Z,1376
2016-05-15T04:55:57.527Z,1348
2016-05-15T04:56:57.530Z,1324
2016-05-15T04:57:57.532Z,1292
2016-05-15T04:58:57.582Z,1272
2016-05-15T04:59:57.553Z,1252
2016-05-15T05:00:57.540Z,1256
2016-05-15T05:01:57.543Z,1344
2016-05-15T05:02:57.374Z,1496
2016-05-15T05:03:57.737Z,1720
2016-05-15T05:04:57.520Z,1672
2016-05-15T05:05:57.522Z,1672
2016-05-15T05:06:57.526Z,1628
2016-05-15T05:07:57.528Z,1564
2016-05-15T05:08:57.374Z,1520
2016-05-15T05:09:57.534Z,1452
2016-05-15T05:10:57.536Z,1404
2016-05-15T05:11:57.524Z,1392
2016-05-15T05:12:57.526Z,1396
2016-05-15T05:13:57.513Z,1428
2016-05-15T05:14:57.532Z,1496
2016-05-15T05:15:57.534Z,1560
2016-05-15T05:16:57.521Z,1728
2016-05-15T05:17:57.524Z,2000
2016-05-15T05:18:57.902Z,2316
2016-05-15T05:19:57.529Z,2480
2016-05-15T05:20:57.516Z,2448
2016-05-15T05:21:57.363Z,2444
2016-05-15T05:22:57.381Z,2452
2016-05-15T05:23:57.524Z,2496
2016-05-15T05:24:57.386Z,2672
2016-05-15T05:25:57.530Z,2864
2016-05-15T05:26:57.517Z,2924
2016-05-15T05:27:57.503Z,2924
2016-05-15T05:28:57.523Z,2940
2016-05-15T05:29:57.525Z,2940
2016-05-15T05:30:57.355Z,2744
2016-05-15T05:31:57.373Z,2804
2016-05-15T05:32:57.393Z,3072
2016-05-15T05:33:57.911Z,3348
2016-05-15T05:34:57.631Z,3444
2016-05-15T05:35:57.526Z,3544
2016-05-15T05:36:57.528Z,3548
2016-05-15T05:37:57.358Z,3628
2016-05-15T05:38:57.502Z,3768
2016-05-15T05:39:57.520Z,3924
2016-05-15T05:40:57.508Z,4196
2016-05-15T05:41:57.525Z,4408
2016-05-15T05:42:57.513Z,4680
2016-05-15T05:43:57.531Z,4708
2016-05-15T05:44:57.533Z,4936
2016-05-15T05:45:57.521Z,5192
2016-05-15T05:46:57.539Z,10692
2016-05-15T05:47:57.511Z,6468
2016-05-15T05:48:57.482Z,6892
2016-05-15T05:49:57.376Z,8228
2016-05-15T05:50:57.519Z,24256
2016-05-15T05:51:57.537Z,8052
2016-05-15T05:52:57.384Z,7504
2016-05-15T05:53:57.527Z,6540
2016-05-15T05:54:57.514Z,6044
2016-05-15T05:55:57.376Z,6460
2016-05-15T05:56:57.520Z,7200
2016-05-15T05:57:57.522Z,7916
2016-05-15T05:58:57.353Z,12700
2016-05-15T05:59:57.542Z,8828
2016-05-15T06:00:57.531Z,8376
2016-05-15T06:01:57.376Z,8620
2016-05-15T06:02:57.364Z,8140
2016-05-15T06:03:57.789Z,7616
2016-05-15T06:04:57.556Z,8176
2016-05-15T06:05:57.528Z,9932
2016-05-15T06:06:57.531Z,8208
2016-05-15T06:07:57.533Z,26304
2016-05-15T06:08:57.536Z,10620
2016-05-15T06:09:57.522Z,26144
2016-05-15T06:10:57.386Z,27136
2016-05-15T06:11:57.388Z,12476
2016-05-15T06:12:57.547Z,19424
2016-05-15T06:13:57.377Z,10116
2016-05-15T06:14:57.521Z,8492
2016-05-15T06:15:57.383Z,8108
2016-05-15T06:16:57.385Z,9220
2016-05-15T06:17:57.530Z,9948
2016-05-15T06:18:57.547Z,11304
2016-05-15T06:19:58.159Z,22304
2016-05-15T06:20:57.381Z,29696
2016-05-15T06:21:57.555Z,10132
2016-05-15T06:22:57.542Z,34912
2016-05-15T06:23:57.388Z,11676
2016-05-15T06:24:57.251Z,8324
2016-05-15T06:25:57.566Z,7820
2016-05-15T06:26:57.396Z,9212
2016-05-15T06:27:57.571Z,15108
2016-05-15T06:28:57.590Z,32000
2016-05-15T06:29:57.576Z,17400
2016-05-15T06:30:57.564Z,13148
2016-05-15T06:31:57.567Z,14800
2016-05-15T06:32:57.570Z,26656
2016-05-15T06:33:57.775Z,25536
2016-05-15T06:34:57.934Z,28896
2016-05-15T06:35:57.609Z,20992
2016-05-15T06:36:57.423Z,20512
2016-05-15T06:37:57.598Z,20576
2016-05-15T06:38:57.600Z,12560
2016-05-15T06:39:57.261Z,22912
2016-05-15T06:40:57.591Z,19680
2016-05-15T06:41:57.593Z,20448
2016-05-15T06:42:57.597Z,10744
2016-05-15T06:43:57.442Z,8680
2016-05-15T06:44:57.305Z,8716
2016-05-15T06:45:57.619Z,18016
2016-05-15T06:46:57.608Z,12560
2016-05-15T06:47:57.485Z,22144
2016-05-15T06:48:57.862Z,11020
2016-05-15T06:49:58.022Z,12340
2016-05-15T06:50:57.633Z,14100
2016-05-15T06:51:57.510Z,39648
2016-05-15T06:52:57.638Z,29440
2016-05-15T06:53:57.641Z,32608
2016-05-15T06:54:57.488Z,36096
2016-05-15T06:55:57.662Z,30784
2016-05-15T06:56:57.509Z,33600
2016-05-15T06:57:57.668Z,20608
2016-05-15T06:58:57.529Z,8544
2016-05-15T06:59:57.673Z,5920
2016-05-15T07:00:57.676Z,4640
2016-05-15T07:01:57.679Z,4224
2016-05-15T07:02:57.697Z,4420
2016-05-15T07:03:57.606Z,4912
2016-05-15T07:04:57.703Z,5832
2016-05-15T07:05:57.705Z,7244
2016-05-15T07:06:57.707Z,10756
2016-05-15T07:07:57.726Z,12000
2016-05-15T07:08:57.713Z,27296
2016-05-15T07:09:57.575Z,14548
2016-05-15T07:10:57.561Z,9492
2016-05-15T07:11:57.722Z,8572
2016-05-15T07:12:57.739Z,8012
2016-05-15T07:13:57.741Z,7392
2016-05-15T07:14:57.589Z,7284
2016-05-15T07:15:57.747Z,7908
2016-05-15T07:16:57.750Z,8720
2016-05-15T07:17:57.769Z,9176
2016-05-15T07:18:57.833Z,10112
2016-05-15T07:19:58.039Z,11424
2016-05-15T07:20:57.620Z,9784
2016-05-15T07:21:57.779Z,8944
2016-05-15T07:22:57.766Z,9524
2016-05-15T07:23:57.769Z,9320
2016-05-15T07:24:57.771Z,8136
2016-05-15T07:25:57.774Z,7556
2016-05-15T07:26:57.777Z,8748
2016-05-15T07:27:57.795Z,9844
2016-05-15T07:28:57.798Z,18272
2016-05-15T07:29:57.660Z,8628
2016-05-15T07:30:57.804Z,12828
2016-05-15T07:31:57.821Z,8316
2016-05-15T07:32:57.809Z,8404
2016-05-15T07:33:58.015Z,9212
2016-05-15T07:34:57.720Z,9320
2016-05-15T07:35:57.675Z,32416
2016-05-15T07:36:57.523Z,10672
2016-05-15T07:37:57.681Z,11936
2016-05-15T07:38:57.860Z,10088
2016-05-15T07:39:57.891Z,10412
2016-05-15T07:40:57.953Z,13592
2016-05-15T07:41:57.998Z,13000
2016-05-15T07:42:58.060Z,12980
2016-05-15T07:43:58.078Z,13120
2016-05-15T07:44:57.940Z,14476
2016-05-15T07:45:57.819Z,14400
2016-05-15T07:46:57.821Z,16936
2016-05-15T07:47:57.995Z,22784
2016-05-15T07:48:58.025Z,12044
2016-05-15T07:49:58.048Z,10076
2016-05-15T07:50:58.197Z,10052
2016-05-15T07:51:58.205Z,10784
2016-05-15T07:53:21.089Z,10872
2016-05-15T07:53:58.220Z,10032
2016-05-15T07:54:58.240Z,9408
2016-05-15T07:55:58.088Z,9372
2016-05-15T07:56:58.233Z,9036
2016-05-15T07:57:58.097Z,8928
2016-05-15T07:58:58.258Z,9160
2016-05-15T07:59:58.246Z,8528
2016-05-15T08:00:58.265Z,7488
2016-05-15T08:01:58.252Z,6808
2016-05-15T08:02:58.256Z,6800
2016-05-15T08:03:58.368Z,6924
2016-05-15T08:04:57.965Z,7108
2016-05-15T08:05:58.296Z,7396
2016-05-15T08:06:58.285Z,8324
2016-05-15T08:07:58.178Z,10504
2016-05-15T08:08:58.149Z,10028
2016-05-15T08:09:58.309Z,9252
2016-05-15T08:10:58.155Z,8976
2016-05-15T08:11:58.298Z,9516
2016-05-15T08:12:58.144Z,9496
2016-05-15T08:13:58.147Z,10104
2016-05-15T08:14:58.166Z,11304
2016-05-15T08:15:58.324Z,32000
2016-05-15T08:16:58.312Z,19200
2016-05-15T08:17:58.330Z,19712
2016-05-15T08:18:58.348Z,16760
2016-05-15T08:19:58.960Z,15192
2016-05-15T08:20:58.338Z,22368
2016-05-15T08:21:58.201Z,16776
2016-05-15T08:22:58.359Z,15064
2016-05-15T08:23:58.409Z,13572
2016-05-15T08:24:58.365Z,12960
2016-05-15T08:25:58.367Z,12936
2016-05-15T08:26:58.354Z,10444
2016-05-15T08:27:58.372Z,9324
2016-05-15T08:28:58.376Z,9548
2016-05-15T08:29:58.222Z,9464
2016-05-15T08:30:58.411Z,8868
2016-05-15T08:31:58.383Z,8348
2016-05-15T08:32:58.230Z,7964
2016-05-15T08:33:58.420Z,7708
2016-05-15T08:34:58.672Z,8460
2016-05-15T08:35:58.411Z,9280
2016-05-15T08:36:58.413Z,9956
2016-05-15T08:37:58.399Z,10248
2016-05-15T08:38:58.262Z,10800
2016-05-15T08:39:58.421Z,11924
2016-05-15T08:40:58.266Z,12972
2016-05-15T08:41:58.113Z,11056
2016-05-15T08:42:58.444Z,9832
2016-05-15T08:43:58.291Z,8516
2016-05-15T08:44:58.434Z,8220
2016-05-15T08:45:58.437Z,7820
2016-05-15T08:46:58.455Z,7824
2016-05-15T08:47:58.442Z,7564
2016-05-15T08:48:58.460Z,7272
2016-05-15T08:49:58.198Z,6668
2016-05-15T08:50:58.466Z,6728
2016-05-15T08:51:58.312Z,6984
2016-05-15T08:52:58.471Z,6896
2016-05-15T08:53:58.473Z,6972
2016-05-15T08:54:58.351Z,6980
2016-05-15T08:55:58.339Z,7140
2016-05-15T08:56:58.498Z,7368
2016-05-15T08:57:58.359Z,7536
2016-05-15T08:58:58.503Z,7716
2016-05-15T08:59:58.490Z,7692
2016-05-15T09:00:58.523Z,6988
2016-05-15T09:01:58.511Z,6564
2016-05-15T09:02:58.514Z,6396
2016-05-15T09:03:58.531Z,6104
2016-05-15T09:04:58.535Z,5856
2016-05-15T09:05:58.522Z,5988
2016-05-15T09:06:58.539Z,6424
2016-05-15T09:07:58.386Z,6012
2016-05-15T09:08:58.388Z,5892
2016-05-15T09:09:58.376Z,5864
2016-05-15T09:10:58.380Z,6336
2016-05-15T09:11:58.553Z,7736
2016-05-15T09:12:58.555Z,7764
2016-05-15T09:13:58.559Z,7780
2016-05-15T09:14:58.561Z,7984
2016-05-15T09:15:58.563Z,8440
2016-05-15T09:16:58.582Z,8792
2016-05-15T09:17:58.570Z,8612
2016-05-15T09:18:58.572Z,8660
2016-05-15T09:19:58.449Z,9736
2016-05-15T09:20:58.577Z,10840
2016-05-15T09:21:58.439Z,11628
2016-05-15T09:22:58.599Z,11816
2016-05-15T09:23:58.601Z,11444
2016-05-15T09:24:58.620Z,11084
2016-05-15T09:25:58.607Z,9924
2016-05-15T09:26:58.593Z,9124
2016-05-15T09:27:58.612Z,8520
2016-05-15T09:28:58.631Z,7892
2016-05-15T09:29:58.617Z,7224
2016-05-15T09:30:58.636Z,6528
2016-05-15T09:31:58.639Z,6164
2016-05-15T09:32:58.625Z,6264
2016-05-15T09:33:58.644Z,7064
2016-05-15T09:34:58.756Z,8516
2016-05-15T09:35:58.649Z,9000
2016-05-15T09:36:58.495Z,9948
2016-05-15T09:37:58.655Z,10592
2016-05-15T09:38:58.658Z,10532
2016-05-15T09:39:58.660Z,10120
2016-05-15T09:40:58.663Z,9752
2016-05-15T09:41:58.650Z,9252
2016-05-15T09:42:58.511Z,8688
2016-05-15T09:43:58.514Z,9180
2016-05-15T09:44:58.673Z,10596
2016-05-15T09:45:58.677Z,11172
2016-05-15T09:46:58.694Z,11188
2016-05-15T09:47:58.541Z,11096
2016-05-15T09:48:58.527Z,10832
2016-05-15T09:49:58.734Z,10160
2016-05-15T09:50:58.690Z,10056
2016-05-15T09:51:58.708Z,10128
2016-05-15T09:52:58.382Z,10132
2016-05-15T09:53:58.713Z,10048
2016-05-15T09:54:58.715Z,9924
2016-05-15T09:55:58.562Z,9912
2016-05-15T09:56:58.721Z,9792
2016-05-15T09:57:58.723Z,9976
2016-05-15T09:58:58.727Z,10104
2016-05-15T09:59:58.729Z,10508
2016-05-15T10:00:58.576Z,10304
2016-05-15T10:01:58.750Z,10720
2016-05-15T10:02:58.753Z,10596
2016-05-15T10:03:58.740Z,9536
2016-05-15T10:04:58.586Z,8660
2016-05-15T10:05:58.761Z,8716
2016-05-15T10:06:58.764Z,9000
2016-05-15T10:07:58.767Z,8956
2016-05-15T10:08:58.769Z,8656
2016-05-15T10:09:58.771Z,9308
2016-05-15T10:10:58.633Z,8032
2016-05-15T10:11:58.778Z,8548
2016-05-15T10:12:58.796Z,9072
2016-05-15T10:13:58.782Z,9160
2016-05-15T10:14:58.786Z,8696
2016-05-15T10:15:58.804Z,8616
2016-05-15T10:16:58.791Z,8520
2016-05-15T10:17:58.652Z,8116
2016-05-15T10:18:58.656Z,8552
2016-05-15T10:19:58.830Z,8988
2016-05-15T10:20:58.818Z,9312
2016-05-15T10:21:58.835Z,9040
2016-05-15T10:22:58.822Z,9024
2016-05-15T10:23:58.826Z,9260
2016-05-15T10:24:58.843Z,9880
2016-05-15T10:25:58.690Z,8988
2016-05-15T10:26:58.833Z,8740
2016-05-15T10:27:58.867Z,8948
2016-05-15T10:28:59.057Z,9396
2016-05-15T10:29:58.701Z,9688
2016-05-15T10:30:58.875Z,8716
2016-05-15T10:31:58.862Z,9156
2016-05-15T10:32:58.865Z,8576
2016-05-15T10:33:58.868Z,8116
2016-05-15T10:34:59.245Z,8216
2016-05-15T10:35:58.888Z,8844
2016-05-15T10:36:58.736Z,8740
2016-05-15T10:37:58.739Z,9000
2016-05-15T10:38:58.584Z,8880
2016-05-15T10:39:58.899Z,8816
2016-05-15T10:40:58.747Z,8232
2016-05-15T10:41:58.905Z,8124
2016-05-15T10:42:58.892Z,8120
2016-05-15T10:43:58.941Z,8216
2016-05-15T10:44:58.913Z,7992
2016-05-15T10:45:58.916Z,8276
2016-05-15T10:46:58.919Z,8644
2016-05-15T10:47:58.936Z,9476
2016-05-15T10:48:58.768Z,9408
2016-05-15T10:49:58.754Z,8952
2016-05-15T10:50:58.805Z,7628
2016-05-15T10:51:58.947Z,7036
2016-05-15T10:52:58.949Z,6936
2016-05-15T10:53:58.952Z,6992
2016-05-15T10:54:58.798Z,6904
2016-05-15T10:55:58.958Z,7364
2016-05-15T10:56:58.976Z,7400
2016-05-15T10:57:58.963Z,7744
2016-05-15T10:58:58.965Z,8172
2016-05-15T10:59:58.969Z,8208
2016-05-15T11:00:58.971Z,9080
2016-05-15T11:01:58.990Z,8908
2016-05-15T11:02:58.976Z,8464
2016-05-15T11:03:58.996Z,7792
2016-05-15T11:04:59.044Z,7472
2016-05-15T11:05:59.001Z,7168
2016-05-15T11:06:59.019Z,7040
2016-05-15T11:07:58.990Z,7172
2016-05-15T11:08:58.852Z,6988
2016-05-15T11:09:59.012Z,7272
2016-05-15T11:10:58.858Z,7688
2016-05-15T11:11:58.876Z,7696
2016-05-15T11:12:59.019Z,7348
2016-05-15T11:13:59.022Z,7048
2016-05-15T11:14:58.899Z,6796
2016-05-15T11:15:59.044Z,6580
2016-05-15T11:16:58.874Z,6372
2016-05-15T11:17:59.049Z,6916
2016-05-15T11:18:59.051Z,6712
2016-05-15T11:19:59.038Z,6908
2016-05-15T11:20:59.057Z,7136
2016-05-15T11:21:59.059Z,7072
2016-05-15T11:22:59.062Z,7132
2016-05-15T11:24:02.424Z,7392
2016-05-15T11:24:59.067Z,7736
2016-05-15T11:25:59.070Z,7756
2016-05-15T11:26:59.088Z,7572
2016-05-15T11:27:58.950Z,7728
2016-05-15T11:28:59.093Z,8036
2016-05-15T11:29:59.081Z,8104
2016-05-15T11:30:59.099Z,8164
2016-05-15T11:31:59.117Z,8180
2016-05-15T11:32:58.948Z,8000
2016-05-15T11:33:59.107Z,8172
2016-05-15T11:34:59.829Z,8164
2016-05-15T11:35:58.972Z,7652
2016-05-15T11:36:59.115Z,7304
2016-05-15T11:37:59.117Z,7432
2016-05-15T11:38:59.136Z,7372
2016-05-15T11:39:58.967Z,7316
2016-05-15T11:40:59.126Z,7412
2016-05-15T11:41:59.144Z,7672
2016-05-15T11:42:59.928Z,7592
2016-05-15T11:43:59.149Z,7740
2016-05-15T11:44:58.997Z,8044
2016-05-15T11:45:59.139Z,8060
2016-05-15T11:46:59.158Z,8264
2016-05-15T11:47:59.160Z,8416
2016-05-15T11:48:59.147Z,8088
2016-05-15T11:49:59.165Z,8492
2016-05-15T11:50:59.013Z,8168
2016-05-15T11:51:59.187Z,8500
2016-05-15T11:52:59.190Z,7772
2016-05-15T11:53:59.270Z,7632
2016-05-15T11:54:59.179Z,8152
2016-05-15T11:55:59.431Z,8080
2016-05-15T11:56:59.185Z,7744
2016-05-15T11:57:59.219Z,7064
2016-05-15T11:58:59.206Z,7064
2016-05-15T11:59:59.208Z,6972
2016-05-15T12:00:59.211Z,7040
2016-05-15T12:01:59.073Z,7104
2016-05-15T12:02:59.076Z,6560
2016-05-15T12:03:59.220Z,6464
2016-05-15T12:04:59.159Z,7088
2016-05-15T12:05:58.912Z,6756
2016-05-15T12:06:59.227Z,7264
2016-05-15T12:07:59.230Z,7032
2016-05-15T12:08:59.248Z,6880
2016-05-15T12:09:59.095Z,6864
2016-05-15T12:10:59.253Z,7008
2016-05-15T12:11:59.256Z,6984
2016-05-15T12:12:59.244Z,6924
2016-05-15T12:13:59.122Z,6592
2016-05-15T12:14:59.264Z,6212
2016-05-15T12:15:58.955Z,5908
2016-05-15T12:16:59.269Z,5800
2016-05-15T12:17:59.272Z,5900
2016-05-15T12:18:59.118Z,5860
2016-05-15T12:19:59.824Z,5860
2016-05-15T12:20:59.281Z,6032
2016-05-15T12:21:59.299Z,6248
2016-05-15T12:22:59.146Z,6348
2016-05-15T12:23:59.304Z,6520
2016-05-15T12:24:59.291Z,6836
2016-05-15T12:25:59.324Z,6996
2016-05-15T12:26:59.313Z,6632
2016-05-15T12:27:59.330Z,6340
2016-05-15T12:28:59.302Z,6164
2016-05-15T12:29:59.320Z,5632
2016-05-15T12:30:59.354Z,5940
2016-05-15T12:31:59.326Z,5916
2016-05-15T12:32:59.173Z,5480
2016-05-15T12:33:59.331Z,5504
2016-05-15T12:34:59.224Z,5876
2016-05-15T12:35:59.336Z,5760
2016-05-15T12:36:59.354Z,5656
2016-05-15T12:37:59.201Z,5612
2016-05-15T12:38:59.345Z,5808
2016-05-15T12:39:59.395Z,6260
2016-05-15T12:40:59.350Z,6468
2016-05-15T12:41:59.368Z,6560
2016-05-15T12:42:59.370Z,6996
2016-05-15T12:43:59.373Z,7420
2016-05-15T12:44:59.375Z,7656
2016-05-15T12:45:59.395Z,8028
2016-05-15T12:46:59.381Z,8200
2016-05-15T12:47:59.384Z,7668
2016-05-15T12:48:59.247Z,6736
2016-05-15T12:49:59.561Z,5896
2016-05-15T12:50:59.408Z,5104
2016-05-15T12:51:59.410Z,4756
2016-05-15T12:52:59.397Z,5092
2016-05-15T12:53:59.416Z,5040
2016-05-15T12:54:59.419Z,5072
2016-05-15T12:55:59.405Z,5748
2016-05-15T12:56:59.424Z,5484
2016-05-15T12:57:59.411Z,5828
2016-05-15T12:58:59.414Z,6036
2016-05-15T12:59:59.432Z,5800
2016-05-15T13:00:59.435Z,5824
2016-05-15T13:01:59.437Z,5764
2016-05-15T13:02:59.440Z,5948
2016-05-15T13:03:59.458Z,6288
2016-05-15T13:04:59.852Z,6804
2016-05-15T13:05:59.464Z,7248
2016-05-15T13:06:59.467Z,7396
2016-05-15T13:07:59.453Z,7704
2016-05-15T13:08:59.300Z,7796
2016-05-15T13:09:59.302Z,7532
2016-05-15T13:10:59.336Z,6584
2016-05-15T13:11:59.481Z,6348
2016-05-15T13:12:59.483Z,6364
2016-05-15T13:13:59.470Z,6264
2016-05-15T13:14:59.472Z,6280
2016-05-15T13:15:59.491Z,5996
2016-05-15T13:16:59.494Z,5936
2016-05-15T13:17:59.340Z,5760
2016-05-15T13:18:59.499Z,5912
2016-05-15T13:19:59.361Z,6136
2016-05-15T13:20:59.519Z,5900
2016-05-15T13:21:59.507Z,6124
2016-05-15T13:22:59.369Z,6224
2016-05-15T13:23:59.527Z,6048
2016-05-15T13:24:59.359Z,5636
2016-05-15T13:25:59.518Z,5556
2016-05-15T13:26:59.535Z,5732
2016-05-15T13:27:59.538Z,5964
2016-05-15T13:28:59.369Z,6096
2016-05-15T13:29:59.543Z,6460
2016-05-15T13:30:59.422Z,6940
2016-05-15T13:31:59.393Z,7312
2016-05-15T13:32:59.552Z,7456
2016-05-15T13:33:59.570Z,7604
2016-05-15T13:35:00.167Z,7564
2016-05-15T13:35:59.560Z,7412
2016-05-15T13:36:59.422Z,6808
2016-05-15T13:37:59.581Z,5960
2016-05-15T13:38:59.412Z,5160
2016-05-15T13:39:59.587Z,4544